createdAt,value
2022-12-14T00:01:39.473Z,23.08
2022-12-14T00:04:07.308Z,24.27
2022-12-14T00:06:35.025Z,25.10
2022-12-14T00:09:04.738Z,24.20
2022-12-14T00:11:33.751Z,25.23
2022-12-14T00:14:02.559Z,23.60
2022-12-14T00:16:31.994Z,24.60
2022-12-14T00:19:00.862Z,23.40
2022-12-14T00:21:28.402Z,22.60
2022-12-14T00:23:57.483Z,23.05
2022-12-14T00:26:27.364Z,23.33
2022-12-14T00:28:55.836Z,24.88
2022-12-14T00:31:23.923Z,24.00
2022-12-14T00:33:51.604Z,24.35
2022-12-14T00:36:19.780Z,22.90
2022-12-14T00:38:46.982Z,23.98
2022-12-14T00:41:14.187Z,22.52
2022-12-14T00:43:41.976Z,24.05
2022-12-14T00:46:09.731Z,25.08
2022-12-14T00:48:37.026Z,23.63
2022-12-14T00:51:04.534Z,24.20
2022-12-14T00:53:31.753Z,24.73
2022-12-14T00:56:06.464Z,24.00
2022-12-14T00:58:33.896Z,24.00
2022-12-14T01:01:06.164Z,23.42
2022-12-14T01:03:34.489Z,24.02
2022-12-14T01:06:02.468Z,21.90
2022-12-14T01:08:36.213Z,24.35
2022-12-14T01:11:07.921Z,23.25
2022-12-14T01:13:35.926Z,23.45
2022-12-14T01:16:08.706Z,22.48
2022-12-14T01:18:37.054Z,21.70
2022-12-14T01:21:11.257Z,22.10
2022-12-14T01:23:38.938Z,23.13
2022-12-14T01:26:06.417Z,22.67
2022-12-14T01:28:35.058Z,24.00
2022-12-14T01:31:30.924Z,23.33
2022-12-14T01:33:58.799Z,23.25
2022-12-14T01:36:30.643Z,23.98
2022-12-14T01:39:00.111Z,23.63
2022-12-14T01:41:31.786Z,23.35
2022-12-14T01:44:04.927Z,22.80
2022-12-14T01:47:01.307Z,24.08
2022-12-14T01:49:37.158Z,22.90
2022-12-14T01:52:12.428Z,24.45
2022-12-14T01:54:48.853Z,24.80
2022-12-14T01:57:17.670Z,23.30
2022-12-14T01:59:46.233Z,23.27
2022-12-14T02:02:15.150Z,22.20
2022-12-14T02:04:51.429Z,22.92
2022-12-14T02:07:18.763Z,22.50
2022-12-14T02:09:47.656Z,22.55
2022-12-14T02:12:19.319Z,22.17
2022-12-14T02:14:47.335Z,22.67
2022-12-14T02:17:15.438Z,22.65
2022-12-14T02:19:49.448Z,22.27
2022-12-14T02:22:43.722Z,24.63
2022-12-14T02:25:53.405Z,22.52
2022-12-14T02:29:00.697Z,21.52
2022-12-14T02:31:49.176Z,21.95
2022-12-14T02:34:42.532Z,22.00
2022-12-14T02:37:41.704Z,23.00
2022-12-14T02:40:28.331Z,23.02
2022-12-14T02:43:03.363Z,22.08
2022-12-14T02:45:48.155Z,22.92
2022-12-14T02:48:26.237Z,23.60
2022-12-14T02:51:03.880Z,23.50
2022-12-14T02:54:03.985Z,23.00
2022-12-14T02:56:43.166Z,21.60
2022-12-14T02:59:11.362Z,22.73
2022-12-14T03:01:39.494Z,24.50
2022-12-14T03:04:07.337Z,26.30
2022-12-14T03:06:34.987Z,25.92
2022-12-14T03:09:16.258Z,25.10
2022-12-14T03:11:51.201Z,25.27
2022-12-14T03:14:30.082Z,25.75
2022-12-14T03:17:02.384Z,25.58
2022-12-14T03:19:39.438Z,26.85
2022-12-14T03:22:15.696Z,27.58
2022-12-14T03:24:55.715Z,24.77
2022-12-14T03:27:24.411Z,24.80
2022-12-14T03:30:02.421Z,27.42
2022-12-14T03:32:32.147Z,24.83
2022-12-14T03:35:09.262Z,25.25
2022-12-14T03:37:52.962Z,26.52
2022-12-14T03:40:56.060Z,25.83
2022-12-14T03:43:32.754Z,25.05
2022-12-14T03:46:13.690Z,26.42
2022-12-14T03:49:19.082Z,26.33
2022-12-14T03:51:52.056Z,27.02
2022-12-14T03:54:36.014Z,28.23
2022-12-14T03:57:27.528Z,26.25
2022-12-14T04:00:09.907Z,25.55
2022-12-14T04:03:08.917Z,27.00
2022-12-14T04:05:47.023Z,28.00
2022-12-14T04:08:33.070Z,26.58
2022-12-14T04:11:19.968Z,25.30
2022-12-14T04:14:11.841Z,25.75
2022-12-14T04:16:59.918Z,24.15
2022-12-14T04:19:37.758Z,25.43
2022-12-14T04:22:18.033Z,26.63
2022-12-14T04:25:18.049Z,25.23
2022-12-14T04:27:54.410Z,26.85
2022-12-14T04:30:21.756Z,26.00
2022-12-14T04:33:26.155Z,25.50
2022-12-14T04:35:56.360Z,23.95
2022-12-14T04:38:30.210Z,26.05
2022-12-14T04:40:59.660Z,26.17
2022-12-14T04:43:31.954Z,24.15
2022-12-14T04:46:06.904Z,23.73
2022-12-14T04:48:55.824Z,24.75
2022-12-14T04:51:48.175Z,24.30
2022-12-14T04:54:25.904Z,24.27
2022-12-14T04:57:19.516Z,24.83
2022-12-14T04:59:47.409Z,23.95
2022-12-14T05:02:29.691Z,24.13
2022-12-14T05:05:14.632Z,23.77
2022-12-14T05:08:02.984Z,24.05
2022-12-14T05:10:44.885Z,25.67
2022-12-14T05:13:31.710Z,23.48
2022-12-14T05:15:59.491Z,24.27
2022-12-14T05:18:26.932Z,22.55
2022-12-14T05:20:54.288Z,23.83
2022-12-14T05:23:22.010Z,22.48
2022-12-14T05:25:49.360Z,22.55
2022-12-14T05:28:17.019Z,21.98
2022-12-14T05:30:49.074Z,23.38
2022-12-14T05:33:20.493Z,21.35
2022-12-14T05:35:47.873Z,21.92
2022-12-14T05:38:15.115Z,21.63
2022-12-14T05:40:42.432Z,22.40
2022-12-14T05:43:12.286Z,21.73
2022-12-14T05:45:39.658Z,20.30
2022-12-14T05:48:06.977Z,22.33
2022-12-14T05:50:34.232Z,22.77
2022-12-14T05:53:01.642Z,21.23
2022-12-14T05:55:28.976Z,20.27
2022-12-14T05:57:56.631Z,21.55
2022-12-14T06:00:23.964Z,21.33
2022-12-14T06:02:51.438Z,23.08
2022-12-14T06:05:18.732Z,22.92
2022-12-14T06:07:46.063Z,21.92
2022-12-14T06:10:13.251Z,22.50
2022-12-14T06:12:40.559Z,23.50
2022-12-14T06:15:08.600Z,21.40
2022-12-14T06:17:36.465Z,22.02
2022-12-14T06:20:04.800Z,21.30
2022-12-14T06:22:32.147Z,22.73
2022-12-14T06:24:59.522Z,21.92
2022-12-14T06:27:26.920Z,21.98
2022-12-14T06:29:54.126Z,23.35
2022-12-14T06:32:21.281Z,23.27
2022-12-14T06:34:48.535Z,22.52
2022-12-14T06:37:16.006Z,23.02
2022-12-14T06:39:43.158Z,22.77
2022-12-14T06:42:11.269Z,23.13
2022-12-14T06:44:38.422Z,22.10
2022-12-14T06:47:05.717Z,21.30
2022-12-14T06:49:32.903Z,20.88
2022-12-14T06:52:00.118Z,22.23
2022-12-14T06:54:27.535Z,22.65
2022-12-14T06:56:54.744Z,21.10
2022-12-14T06:59:22.083Z,20.52
2022-12-14T07:01:49.809Z,20.92
2022-12-14T07:04:18.695Z,20.93
2022-12-14T07:06:45.853Z,21.95
2022-12-14T07:09:14.142Z,21.30
2022-12-14T07:11:41.906Z,20.63
2022-12-14T07:14:11.009Z,20.83
2022-12-14T07:19:05.287Z,19.80
2022-12-14T07:21:36.357Z,19.73
2022-12-14T07:24:03.716Z,19.83
2022-12-14T07:26:31.054Z,19.33
2022-12-14T07:29:00.628Z,21.23
2022-12-14T07:31:28.974Z,20.60
2022-12-14T07:33:58.890Z,21.27
2022-12-14T07:36:27.631Z,21.50
2022-12-14T07:38:55.783Z,21.70
2022-12-14T07:41:30.507Z,20.57
2022-12-14T07:43:59.134Z,20.88
2022-12-14T07:46:28.097Z,23.02
2022-12-14T07:48:56.693Z,22.73
2022-12-14T07:51:26.078Z,21.55
2022-12-14T07:53:54.611Z,22.63
2022-12-14T07:56:25.007Z,20.65
2022-12-14T07:58:52.681Z,21.98
2022-12-14T08:01:40.623Z,22.95
2022-12-14T08:04:10.461Z,27.30
2022-12-14T08:06:38.302Z,28.10
2022-12-14T08:09:06.985Z,29.02
2022-12-14T08:11:34.193Z,32.63
2022-12-14T08:14:04.481Z,31.85
2022-12-14T08:16:32.165Z,27.40
2022-12-14T08:19:00.189Z,26.88
2022-12-14T08:21:28.242Z,24.92
2022-12-14T08:23:56.069Z,25.67
2022-12-14T08:26:25.577Z,27.13
2022-12-14T08:28:57.458Z,26.88
2022-12-14T08:31:28.225Z,30.15
2022-12-14T08:33:55.605Z,24.58
2022-12-14T08:36:27.962Z,23.73
2022-12-14T08:38:56.880Z,22.92
2022-12-14T08:41:24.663Z,23.80
2022-12-14T08:43:54.158Z,22.63
2022-12-14T08:46:22.161Z,22.83
2022-12-14T08:48:52.461Z,23.02
2022-12-14T08:51:20.286Z,22.23
2022-12-14T08:53:47.835Z,22.83
2022-12-14T08:56:18.163Z,22.75
2022-12-14T08:58:45.943Z,23.05
2022-12-14T09:01:15.915Z,24.33
2022-12-14T09:03:47.420Z,24.90
2022-12-14T09:06:21.412Z,22.27
2022-12-14T09:08:49.770Z,22.63
2022-12-14T09:11:18.962Z,23.13
2022-12-14T09:13:46.663Z,26.60
2022-12-14T09:16:18.545Z,25.50
2022-12-14T09:18:46.916Z,29.13
2022-12-14T09:21:14.291Z,25.80
2022-12-14T09:23:42.231Z,26.88
2022-12-14T09:26:12.334Z,25.33
2022-12-14T09:28:40.633Z,26.65
2022-12-14T09:31:10.570Z,23.63
2022-12-14T09:33:38.016Z,25.48
2022-12-14T09:36:07.931Z,24.52
2022-12-14T09:38:37.809Z,23.13
2022-12-14T09:41:07.991Z,25.50
2022-12-14T09:43:36.933Z,23.00
2022-12-14T09:46:27.650Z,24.52
2022-12-14T09:48:56.631Z,23.67
2022-12-14T09:51:35.187Z,23.25
2022-12-14T09:54:05.927Z,23.38
2022-12-14T09:56:33.997Z,22.35
2022-12-14T09:59:02.740Z,21.92
2022-12-14T10:01:55.522Z,21.70
2022-12-14T10:05:03.278Z,22.20
2022-12-14T10:07:53.533Z,21.90
2022-12-14T10:10:59.943Z,21.70
2022-12-14T10:13:48.459Z,20.83
2022-12-14T10:16:35.832Z,21.08
2022-12-14T10:19:27.704Z,19.67
2022-12-14T10:22:03.112Z,20.15
2022-12-14T10:24:44.202Z,20.38
2022-12-14T10:27:22.071Z,20.00
2022-12-14T10:29:57.312Z,20.58
2022-12-14T10:32:36.158Z,20.77
2022-12-14T10:35:26.944Z,20.63
2022-12-14T10:38:19.686Z,20.42
2022-12-14T10:40:50.034Z,19.17
2022-12-14T10:43:26.373Z,18.70
2022-12-14T10:46:14.885Z,19.98
2022-12-14T10:49:00.426Z,21.17
2022-12-14T10:51:46.855Z,20.77
2022-12-14T10:54:34.067Z,21.85
2022-12-14T10:57:01.560Z,20.98
2022-12-14T10:59:38.400Z,20.98
2022-12-14T11:02:17.062Z,20.23
2022-12-14T11:05:13.849Z,21.85
2022-12-14T11:07:43.339Z,21.85
2022-12-14T11:10:13.814Z,20.77
2022-12-14T11:12:41.812Z,25.33
2022-12-14T11:15:24.244Z,23.25
2022-12-14T11:18:01.993Z,22.52
2022-12-14T11:20:29.685Z,22.10
2022-12-14T11:23:04.470Z,20.77
2022-12-14T11:25:49.517Z,22.85
2022-12-14T11:28:38.771Z,22.15
2022-12-14T11:31:11.994Z,22.20
2022-12-14T11:33:44.787Z,21.95
2022-12-14T11:36:30.017Z,23.02
2022-12-14T11:39:00.739Z,21.65
2022-12-14T11:41:38.329Z,20.45
2022-12-14T11:44:14.652Z,20.00
2022-12-14T11:47:02.608Z,21.13
2022-12-14T11:49:40.112Z,21.08
2022-12-14T11:52:15.433Z,20.10
2022-12-14T11:54:50.023Z,21.70
2022-12-14T11:57:31.488Z,20.77
2022-12-14T12:00:06.414Z,20.25
2022-12-14T12:02:35.274Z,21.48
2022-12-14T12:05:20.271Z,22.70
2022-12-14T12:07:50.683Z,20.50
2022-12-14T12:10:38.626Z,21.15
2022-12-14T12:13:07.260Z,20.40
2022-12-14T12:15:49.925Z,18.33
2022-12-14T12:18:41.648Z,19.75
2022-12-14T12:21:29.405Z,19.95
2022-12-14T12:24:22.192Z,18.17
2022-12-14T12:26:58.898Z,18.23
2022-12-14T12:29:49.429Z,19.60
2022-12-14T12:32:25.675Z,18.23
2022-12-14T12:35:14.724Z,18.95
2022-12-14T12:37:45.793Z,19.35
2022-12-14T12:40:24.460Z,18.95
2022-12-14T12:43:03.610Z,18.00
2022-12-14T12:48:23.185Z,17.63
2022-12-14T12:50:59.697Z,18.27
2022-12-14T12:53:47.233Z,18.63
2022-12-14T12:56:22.063Z,17.90
2022-12-14T12:58:52.930Z,19.48
2022-12-14T13:01:31.106Z,17.55
2022-12-14T13:04:03.472Z,19.27
2022-12-14T13:06:40.534Z,17.52
2022-12-14T13:09:18.231Z,20.70
2022-12-14T13:11:46.020Z,20.08
2022-12-14T13:14:27.977Z,19.67
2022-12-14T13:16:55.781Z,19.45
2022-12-14T13:19:54.414Z,19.50
2022-12-14T13:22:31.197Z,19.33
2022-12-14T13:25:03.596Z,19.20
2022-12-14T13:27:35.469Z,17.35
2022-12-14T13:30:18.677Z,20.52
2022-12-14T13:33:23.486Z,18.67
2022-12-14T13:36:20.468Z,17.88
2022-12-14T13:38:58.711Z,20.27
2022-12-14T13:41:48.685Z,20.52
2022-12-14T13:44:34.785Z,19.23
2022-12-14T13:47:06.485Z,21.25
2022-12-14T13:49:34.039Z,21.08
2022-12-14T13:52:01.714Z,21.48
2022-12-14T13:54:36.017Z,20.15
2022-12-14T13:57:12.403Z,20.45
2022-12-14T13:59:44.453Z,20.52
2022-12-14T14:02:30.018Z,19.60
2022-12-14T14:05:16.276Z,19.38
2022-12-14T14:07:55.895Z,18.95
2022-12-14T14:10:38.950Z,18.65
2022-12-14T14:13:27.976Z,19.45
2022-12-14T14:16:27.989Z,19.55
2022-12-14T14:19:04.629Z,19.67
2022-12-14T14:22:06.014Z,19.58
2022-12-14T14:24:52.453Z,18.40
2022-12-14T14:27:21.769Z,19.83
2022-12-14T14:32:38.928Z,18.13
2022-12-14T14:35:27.462Z,17.35
2022-12-14T14:38:00.237Z,18.58
2022-12-14T14:40:51.314Z,17.95
2022-12-14T14:43:29.673Z,19.23
2022-12-14T14:46:00.673Z,19.90
2022-12-14T14:48:40.167Z,19.20
2022-12-14T14:51:20.494Z,19.98
2022-12-14T14:53:50.433Z,20.65
2022-12-14T14:56:38.361Z,19.33
2022-12-14T14:59:17.818Z,19.23
2022-12-14T15:02:00.582Z,20.67
2022-12-14T15:04:47.722Z,23.15
2022-12-14T15:07:21.963Z,25.73
2022-12-14T15:09:52.926Z,24.55
2022-12-14T15:12:41.683Z,25.60
2022-12-14T15:15:21.343Z,23.40
2022-12-14T15:17:49.778Z,23.58
2022-12-14T15:20:26.776Z,23.48
2022-12-14T15:22:55.941Z,23.02
2022-12-14T15:25:32.124Z,22.90
2022-12-14T15:28:05.420Z,24.58
2022-12-14T15:30:32.775Z,23.00
2022-12-14T15:33:09.565Z,23.83
2022-12-14T15:35:39.434Z,24.25
2022-12-14T15:38:12.786Z,24.15
2022-12-14T15:40:41.218Z,24.55
2022-12-14T15:43:20.869Z,25.05
2022-12-14T15:45:53.190Z,24.15
2022-12-14T15:48:30.934Z,25.10
2022-12-14T15:51:06.239Z,23.75
2022-12-14T15:53:37.374Z,24.88
2022-12-14T15:56:28.444Z,24.58
2022-12-14T15:58:58.108Z,23.35
2022-12-14T16:01:39.163Z,26.60
2022-12-14T16:04:12.252Z,26.60
2022-12-14T16:06:45.769Z,27.23
2022-12-14T16:09:27.331Z,24.08
2022-12-14T16:12:07.040Z,23.25
2022-12-14T16:14:48.125Z,22.55
2022-12-14T16:17:22.989Z,23.42
2022-12-14T16:19:59.452Z,22.80
2022-12-14T16:22:32.509Z,23.15
2022-12-14T16:25:11.687Z,23.00
2022-12-14T16:30:27.686Z,23.77
2022-12-14T16:33:16.342Z,23.88
2022-12-14T16:35:45.024Z,67.20
2022-12-14T16:38:16.738Z,68.57
2022-12-14T16:40:57.522Z,29.58
2022-12-14T16:43:43.274Z,26.38
2022-12-14T16:46:11.849Z,25.45
2022-12-14T16:48:41.988Z,25.45
2022-12-14T16:51:44.892Z,28.27
2022-12-14T16:54:25.218Z,31.63
2022-12-14T16:56:57.976Z,86.43
2022-12-14T16:59:44.134Z,40.55
2022-12-14T17:02:55.131Z,55.70
2022-12-14T17:05:23.739Z,29.45
2022-12-14T17:07:50.896Z,27.48
2022-12-14T17:10:20.761Z,26.05
2022-12-14T17:12:49.030Z,25.23
2022-12-14T17:15:18.512Z,28.00
2022-12-14T17:17:49.346Z,25.63
2022-12-14T17:20:27.759Z,29.25
2022-12-14T17:22:58.662Z,27.25
2022-12-14T17:25:27.274Z,26.83
2022-12-14T17:27:54.651Z,27.52
2022-12-14T17:30:24.320Z,29.33
2022-12-14T17:32:53.958Z,27.98
2022-12-14T17:35:30.015Z,29.02
2022-12-14T17:37:57.597Z,27.98
2022-12-14T17:40:25.964Z,28.85
2022-12-14T17:42:55.143Z,28.63
2022-12-14T17:47:54.555Z,27.52
2022-12-14T17:50:22.337Z,28.75
2022-12-14T17:52:53.467Z,29.45
2022-12-14T17:55:25.418Z,29.55
2022-12-14T17:57:54.479Z,29.98
2022-12-14T18:00:43.366Z,28.50
2022-12-14T18:03:11.923Z,30.33
2022-12-14T18:05:48.326Z,31.52
2022-12-14T18:08:19.079Z,30.85
2022-12-14T18:10:47.654Z,30.20
2022-12-14T18:13:15.684Z,31.40
2022-12-14T18:15:49.800Z,31.42
2022-12-14T18:18:19.049Z,30.67
2022-12-14T18:20:50.695Z,29.80
2022-12-14T18:23:21.685Z,31.33
2022-12-14T18:25:56.082Z,31.05
2022-12-14T18:28:30.155Z,33.25
2022-12-14T18:31:02.170Z,31.60
2022-12-14T18:33:29.897Z,31.73
2022-12-14T18:35:57.710Z,30.67
2022-12-14T18:38:25.669Z,32.20
2022-12-14T18:40:55.144Z,31.83
2022-12-14T18:43:25.397Z,31.05
2022-12-14T18:45:54.249Z,33.20
2022-12-14T18:48:22.371Z,30.67
2022-12-14T18:50:50.562Z,33.03
2022-12-14T18:53:20.834Z,32.65
2022-12-14T18:55:48.709Z,35.47
2022-12-14T18:58:36.322Z,32.58
2022-12-14T19:01:03.767Z,33.03
2022-12-14T19:03:32.716Z,33.17
2022-12-14T19:06:42.149Z,35.75
2022-12-14T19:08:57.125Z,30.17
2022-12-14T19:11:39.098Z,33.25
2022-12-14T19:14:07.076Z,32.65
2022-12-14T19:16:35.014Z,33.47
2022-12-14T19:19:05.285Z,32.95
2022-12-14T19:21:32.716Z,32.90
2022-12-14T19:24:01.163Z,37.15
2022-12-14T19:26:31.298Z,37.83
2022-12-14T19:28:58.644Z,36.58
2022-12-14T19:31:26.164Z,35.67
2022-12-14T19:33:54.028Z,37.80
2022-12-14T19:36:21.463Z,36.30
2022-12-14T19:38:49.318Z,35.38
2022-12-14T19:41:20.520Z,36.85
2022-12-14T19:43:48.749Z,35.25
2022-12-14T19:46:18.171Z,35.53
2022-12-14T19:48:46.283Z,33.78
2022-12-14T19:51:14.528Z,35.83
2022-12-14T19:53:42.827Z,38.70
2022-12-14T19:56:10.606Z,36.63
2022-12-14T19:58:40.947Z,36.90
2022-12-14T20:01:09.773Z,32.28
2022-12-14T20:03:40.340Z,36.22
2022-12-14T20:06:10.462Z,37.42
2022-12-14T20:08:39.352Z,36.92
2022-12-14T20:11:11.058Z,35.13
2022-12-14T20:13:38.391Z,36.88
2022-12-14T20:16:05.997Z,37.35
2022-12-14T20:18:33.648Z,36.58
2022-12-14T20:21:06.045Z,33.80
2022-12-14T20:23:36.277Z,33.78
2022-12-14T20:26:06.848Z,34.75
2022-12-14T20:28:34.362Z,35.15
2022-12-14T20:31:04.484Z,34.53
2022-12-14T20:33:32.833Z,32.90
2022-12-14T20:36:00.579Z,34.78
2022-12-14T20:38:28.326Z,37.28
2022-12-14T20:40:56.145Z,34.22
2022-12-14T20:43:23.426Z,38.70
2022-12-14T20:45:50.620Z,37.15
2022-12-14T20:48:17.776Z,38.70
2022-12-14T20:50:50.533Z,38.80
2022-12-14T20:53:20.010Z,39.80
2022-12-14T20:55:47.182Z,39.75
2022-12-14T20:58:14.451Z,43.35
2022-12-14T21:00:41.846Z,43.25
2022-12-14T21:03:09.271Z,41.42
2022-12-14T21:05:41.716Z,40.70
2022-12-14T21:08:09.593Z,38.80
2022-12-14T21:10:37.216Z,37.05
2022-12-14T21:13:07.619Z,35.70
2022-12-14T21:15:35.682Z,38.55
2022-12-14T21:18:02.953Z,36.10
2022-12-14T21:20:30.374Z,35.30
2022-12-14T21:22:57.610Z,35.33
2022-12-14T21:25:24.829Z,34.72
2022-12-14T21:27:52.067Z,34.47
2022-12-14T21:30:19.320Z,34.75
2022-12-14T21:32:46.562Z,34.22
2022-12-14T21:35:17.641Z,36.72
2022-12-14T21:37:45.213Z,36.22
2022-12-14T21:40:33.018Z,33.92
2022-12-14T21:43:00.320Z,35.65
2022-12-14T21:45:30.033Z,35.25
2022-12-14T21:48:00.150Z,32.80
2022-12-14T21:50:27.454Z,34.78
2022-12-14T21:52:54.728Z,33.92
2022-12-14T21:55:21.948Z,32.35
2022-12-14T21:58:08.114Z,35.20
2022-12-14T22:00:37.170Z,34.50
2022-12-14T22:03:05.347Z,33.95
2022-12-14T22:05:32.942Z,33.55
2022-12-14T22:08:00.722Z,33.88
2022-12-14T22:10:27.930Z,34.55
2022-12-14T22:12:55.181Z,33.50
2022-12-14T22:15:22.400Z,33.83
2022-12-14T22:17:52.565Z,36.33
2022-12-14T22:20:19.935Z,33.13
2022-12-14T22:22:47.334Z,33.20
2022-12-14T22:25:15.523Z,35.03
2022-12-14T22:27:42.878Z,36.67
2022-12-14T22:30:16.794Z,33.80
2022-12-14T22:32:44.030Z,36.40
2022-12-14T22:35:11.373Z,35.35
2022-12-14T22:37:38.713Z,35.50
2022-12-14T22:40:06.977Z,38.65
2022-12-14T22:42:34.848Z,43.17
2022-12-14T22:45:02.007Z,45.55
2022-12-14T22:47:29.233Z,48.13
2022-12-14T22:49:56.377Z,46.03
2022-12-14T22:52:25.130Z,39.90
2022-12-14T22:54:54.023Z,39.40
2022-12-14T22:57:21.704Z,38.97
2022-12-14T22:59:59.594Z,41.00
2022-12-14T23:02:27.964Z,37.40
2022-12-14T23:04:55.819Z,39.38
2022-12-14T23:07:23.304Z,36.65
2022-12-14T23:10:08.995Z,34.97
2022-12-14T23:12:55.739Z,33.97
2022-12-14T23:15:41.527Z,35.95
2022-12-14T23:18:27.904Z,34.70
2022-12-14T23:21:13.797Z,32.88
2022-12-14T23:24:01.105Z,36.85
2022-12-14T23:26:47.521Z,37.88
2022-12-14T23:29:33.748Z,36.53
2022-12-14T23:32:19.413Z,35.60
2022-12-14T23:35:05.338Z,34.95
2022-12-14T23:37:51.030Z,36.45
2022-12-14T23:40:36.690Z,35.17
2022-12-14T23:43:35.549Z,35.60
2022-12-14T23:49:12.028Z,34.58
2022-12-14T23:52:01.347Z,35.78
2022-12-14T23:54:47.924Z,35.58
2022-12-14T23:57:33.688Z,35.45
